createdAt,value
2023-04-09T00:01:11.218Z,11.59
2023-04-09T00:03:40.510Z,11.54
2023-04-09T00:06:08.794Z,11.35
2023-04-09T00:08:37.059Z,11.31
2023-04-09T00:11:05.698Z,11.20
2023-04-09T00:13:39.357Z,11.16
2023-04-09T00:16:09.102Z,11.12
2023-04-09T00:18:37.573Z,11.11
2023-04-09T00:21:06.956Z,11.14
2023-04-09T00:23:35.483Z,11.18
2023-04-09T00:26:03.547Z,11.09
2023-04-09T00:28:31.863Z,11.06
2023-04-09T00:31:01.379Z,11.10
2023-04-09T00:33:29.770Z,11.04
2023-04-09T00:35:57.835Z,11.01
2023-04-09T00:38:29.097Z,11.04
2023-04-09T00:40:57.184Z,11.09
2023-04-09T00:43:25.434Z,11.32
2023-04-09T00:45:53.591Z,11.27
2023-04-09T00:48:23.725Z,10.97
2023-04-09T00:50:51.780Z,10.89
2023-04-09T00:53:20.146Z,10.95
2023-04-09T00:55:48.173Z,10.92
2023-04-09T00:58:17.033Z,11.03
2023-04-09T01:00:45.238Z,11.03
2023-04-09T01:03:13.791Z,10.89
2023-04-09T01:05:51.026Z,11.07
2023-04-09T01:08:29.381Z,10.92
2023-04-09T01:11:06.965Z,10.80
2023-04-09T01:13:40.983Z,10.75
2023-04-09T01:16:11.684Z,10.91
2023-04-09T01:18:45.590Z,10.79
2023-04-09T01:21:18.980Z,10.84
2023-04-09T01:23:52.330Z,10.77
2023-04-09T01:26:25.606Z,10.71
2023-04-09T01:28:58.617Z,10.68
2023-04-09T01:31:30.915Z,10.68
2023-04-09T01:34:00.210Z,10.61
2023-04-09T01:36:28.339Z,10.68
2023-04-09T01:38:57.328Z,10.68
2023-04-09T01:41:26.125Z,10.64
2023-04-09T01:43:54.905Z,10.62
2023-04-09T01:46:24.549Z,10.60
2023-04-09T01:48:56.160Z,10.62
2023-04-09T01:51:24.415Z,10.61
2023-04-09T01:53:52.742Z,10.79
2023-04-09T01:56:21.291Z,10.69
2023-04-09T01:58:49.721Z,10.73
2023-04-09T02:01:25.699Z,10.72
2023-04-09T02:03:55.975Z,10.71
2023-04-09T02:06:27.695Z,10.77
2023-04-09T02:08:56.355Z,10.62
2023-04-09T02:11:24.831Z,10.49
2023-04-09T02:13:55.071Z,10.42
2023-04-09T02:16:25.670Z,10.39
2023-04-09T02:18:54.584Z,10.46
2023-04-09T02:21:23.353Z,10.37
2023-04-09T02:23:51.704Z,10.48
2023-04-09T02:26:19.686Z,10.53
2023-04-09T02:28:47.949Z,10.31
2023-04-09T02:31:16.161Z,10.21
2023-04-09T02:33:45.793Z,10.19
2023-04-09T02:36:14.204Z,10.37
2023-04-09T02:38:42.811Z,10.25
2023-04-09T02:41:11.288Z,10.25
2023-04-09T02:43:39.639Z,10.31
2023-04-09T02:46:08.364Z,10.24
2023-04-09T02:48:37.347Z,10.22
2023-04-09T02:51:08.242Z,10.21
2023-04-09T02:53:37.714Z,10.31
2023-04-09T02:56:06.101Z,10.14
2023-04-09T02:58:34.531Z,10.00
2023-04-09T03:01:02.703Z,10.23
2023-04-09T03:03:31.468Z,10.26
2023-04-09T03:05:59.661Z,9.95
2023-04-09T03:08:29.304Z,9.98
2023-04-09T03:10:57.256Z,10.13
2023-04-09T03:13:25.586Z,9.91
2023-04-09T03:15:53.859Z,9.83
2023-04-09T03:18:22.474Z,9.70
2023-04-09T03:20:50.504Z,9.67
2023-04-09T03:23:18.805Z,9.69
2023-04-09T03:25:50.238Z,9.69
2023-04-09T03:28:20.548Z,9.64
2023-04-09T03:30:52.891Z,9.70
2023-04-09T03:33:21.416Z,9.66
2023-04-09T03:35:55.356Z,9.72
2023-04-09T03:38:43.990Z,9.60
2023-04-09T03:41:25.308Z,9.72
2023-04-09T03:43:53.813Z,9.87
2023-04-09T03:46:26.609Z,9.65
2023-04-09T03:48:55.823Z,9.63
2023-04-09T03:51:28.140Z,9.53
2023-04-09T03:53:59.619Z,9.71
2023-04-09T03:56:29.209Z,9.51
2023-04-09T03:58:58.217Z,9.44
2023-04-09T04:01:35.797Z,9.70
2023-04-09T04:04:04.596Z,9.76
2023-04-09T04:06:37.707Z,9.59
2023-04-09T04:09:21.375Z,9.66
2023-04-09T04:12:00.055Z,9.67
2023-04-09T04:14:42.844Z,9.54
2023-04-09T04:17:21.529Z,9.66
2023-04-09T04:19:51.161Z,9.58
2023-04-09T04:22:19.239Z,9.66
2023-04-09T04:24:50.628Z,9.54
2023-04-09T04:27:23.116Z,9.52
2023-04-09T04:29:51.906Z,9.44
2023-04-09T04:32:40.360Z,9.67
2023-04-09T04:35:12.284Z,9.70
2023-04-09T04:37:43.272Z,9.53
2023-04-09T04:40:11.867Z,9.52
2023-04-09T04:42:44.873Z,9.62
2023-04-09T04:45:16.724Z,9.54
2023-04-09T04:47:51.443Z,9.57
2023-04-09T04:50:20.111Z,9.39
2023-04-09T04:53:01.627Z,9.32
2023-04-09T04:55:36.461Z,9.25
2023-04-09T04:58:06.681Z,9.27
2023-04-09T05:00:43.733Z,9.27
2023-04-09T05:03:12.069Z,9.26
2023-04-09T05:05:48.047Z,9.28
2023-04-09T05:08:16.423Z,9.24
2023-04-09T05:10:46.806Z,9.27
2023-04-09T05:13:16.401Z,9.36
2023-04-09T05:15:44.760Z,9.26
2023-04-09T05:18:13.069Z,9.22
2023-04-09T05:20:41.421Z,9.22
2023-04-09T05:23:12.462Z,9.39
2023-04-09T05:25:43.840Z,9.50
2023-04-09T05:28:22.120Z,9.33
2023-04-09T05:30:57.491Z,9.25
2023-04-09T05:33:25.718Z,9.30
2023-04-09T05:35:54.159Z,9.35
2023-04-09T05:38:22.284Z,9.15
2023-04-09T05:40:57.363Z,9.02
2023-04-09T05:43:27.030Z,8.95
2023-04-09T05:45:55.335Z,8.92
2023-04-09T05:48:23.646Z,8.80
2023-04-09T05:50:55.471Z,8.86
2023-04-09T05:53:26.126Z,8.89
2023-04-09T05:55:54.432Z,8.90
2023-04-09T05:58:29.469Z,8.94
2023-04-09T06:00:59.320Z,8.98
2023-04-09T06:03:28.757Z,9.08
2023-04-09T06:05:57.230Z,9.11
2023-04-09T06:08:25.372Z,9.13
2023-04-09T06:10:53.570Z,9.12
2023-04-09T06:13:21.948Z,9.30
2023-04-09T06:15:52.154Z,9.30
2023-04-09T06:18:20.225Z,9.33
2023-04-09T06:20:48.588Z,9.27
2023-04-09T06:23:16.744Z,9.21
2023-04-09T06:25:45.010Z,9.24
2023-04-09T06:28:13.051Z,9.37
2023-04-09T06:30:41.379Z,9.43
2023-04-09T06:33:10.815Z,9.40
2023-04-09T06:35:39.204Z,9.75
2023-04-09T06:38:07.832Z,9.77
2023-04-09T06:40:36.092Z,9.79
2023-04-09T06:43:04.237Z,9.87
2023-04-09T06:45:41.129Z,9.88
2023-04-09T06:48:10.597Z,9.83
2023-04-09T06:50:38.929Z,9.95
2023-04-09T06:53:07.456Z,9.97
2023-04-09T06:55:35.703Z,10.15
2023-04-09T06:58:03.770Z,10.14
2023-04-09T07:00:32.105Z,10.12
2023-04-09T07:03:00.876Z,10.18
2023-04-09T07:05:31.737Z,10.33
2023-04-09T07:07:59.761Z,10.56
2023-04-09T07:10:28.070Z,10.53
2023-04-09T07:12:56.150Z,10.53
2023-04-09T07:15:24.450Z,10.59
2023-04-09T07:17:52.718Z,10.74
2023-04-09T07:20:21.011Z,10.71
2023-04-09T07:22:50.430Z,10.61
2023-04-09T07:25:18.801Z,10.59
2023-04-09T07:27:46.837Z,10.71
2023-04-09T07:30:15.711Z,10.74
2023-04-09T07:32:43.941Z,10.95
2023-04-09T07:35:12.395Z,11.04
2023-04-09T07:37:40.423Z,10.95
2023-04-09T07:40:10.794Z,10.95
2023-04-09T07:42:39.230Z,11.01
2023-04-09T07:45:08.560Z,10.80
2023-04-09T07:47:36.668Z,10.89
2023-04-09T07:50:05.449Z,10.82
2023-04-09T07:52:33.590Z,11.07
2023-04-09T07:55:01.951Z,11.28
2023-04-09T07:57:33.307Z,11.18
2023-04-09T08:00:02.250Z,11.53
2023-04-09T08:02:41.165Z,11.60
2023-04-09T08:05:10.588Z,11.47
2023-04-09T08:07:38.673Z,11.43
2023-04-09T08:10:07.856Z,11.17
2023-04-09T08:12:37.201Z,11.39
2023-04-09T08:15:06.481Z,11.19
2023-04-09T08:17:36.869Z,11.40
2023-04-09T08:20:05.552Z,11.52
2023-04-09T08:22:34.481Z,11.38
2023-04-09T08:25:03.083Z,11.33
2023-04-09T08:27:31.329Z,11.22
2023-04-09T08:30:00.992Z,11.40
2023-04-09T08:32:29.627Z,11.41
2023-04-09T08:34:57.875Z,11.43
2023-04-09T08:37:26.720Z,11.65
2023-04-09T08:39:54.998Z,11.88
2023-04-09T08:42:24.030Z,11.97
2023-04-09T08:44:52.364Z,12.15
2023-04-09T08:47:22.121Z,12.28
2023-04-09T08:49:50.477Z,12.41
2023-04-09T08:52:21.858Z,12.55
2023-04-09T08:54:52.034Z,12.70
2023-04-09T08:57:20.130Z,12.64
2023-04-09T08:59:48.464Z,12.49
2023-04-09T09:02:16.711Z,12.56
2023-04-09T09:04:47.394Z,12.69
2023-04-09T09:07:16.081Z,12.77
2023-04-09T09:09:54.911Z,12.83
2023-04-09T09:12:36.109Z,12.67
2023-04-09T09:15:05.160Z,12.62
2023-04-09T09:17:33.413Z,12.68
2023-04-09T09:20:20.240Z,12.67
2023-04-09T09:22:55.082Z,12.80
2023-04-09T09:25:25.435Z,12.59
2023-04-09T09:27:53.790Z,12.44
2023-04-09T09:30:22.957Z,12.61
2023-04-09T09:32:53.580Z,12.83
2023-04-09T09:35:23.459Z,12.90
2023-04-09T09:38:03.716Z,12.98
2023-04-09T09:40:32.006Z,13.00
2023-04-09T09:43:00.164Z,13.26
2023-04-09T09:45:28.951Z,13.16
2023-04-09T09:47:56.991Z,13.10
2023-04-09T09:50:28.523Z,13.59
2023-04-09T09:53:00.567Z,13.74
2023-04-09T09:55:32.155Z,13.92
2023-04-09T09:58:03.470Z,14.10
2023-04-09T10:00:33.771Z,14.06
2023-04-09T10:03:09.149Z,14.04
2023-04-09T10:05:40.006Z,14.10
2023-04-09T10:08:08.588Z,14.19
2023-04-09T10:10:37.503Z,14.17
2023-04-09T10:13:07.531Z,14.24
2023-04-09T10:15:35.894Z,14.26
2023-04-09T10:18:04.073Z,14.38
2023-04-09T10:20:36.990Z,14.40
2023-04-09T10:23:12.090Z,14.29
2023-04-09T10:25:40.510Z,14.40
2023-04-09T10:28:17.541Z,14.38
2023-04-09T10:30:46.329Z,14.31
2023-04-09T10:33:16.085Z,14.27
2023-04-09T10:35:47.897Z,14.30
2023-04-09T10:38:17.297Z,14.37
2023-04-09T10:40:49.493Z,14.38
2023-04-09T10:43:20.995Z,14.29
2023-04-09T10:45:53.289Z,14.31
2023-04-09T10:48:21.619Z,14.38
2023-04-09T10:50:51.538Z,14.57
2023-04-09T10:53:24.675Z,14.83
2023-04-09T10:55:54.003Z,14.93
2023-04-09T10:58:22.083Z,14.94
2023-04-09T11:00:51.670Z,14.95
2023-04-09T11:03:30.435Z,14.82
2023-04-09T11:06:01.508Z,14.87
2023-04-09T11:08:32.596Z,14.99
2023-04-09T11:11:02.287Z,15.20
2023-04-09T11:13:31.642Z,15.29
2023-04-09T11:16:01.201Z,15.47
2023-04-09T11:18:30.818Z,15.44
2023-04-09T11:21:00.373Z,15.58
2023-04-09T11:23:29.055Z,15.60
2023-04-09T11:25:58.738Z,15.63
2023-04-09T11:28:27.162Z,15.65
2023-04-09T11:30:55.447Z,15.71
2023-04-09T11:33:23.571Z,15.83
2023-04-09T11:35:52.202Z,15.87
2023-04-09T11:38:20.318Z,15.88
2023-04-09T11:40:49.239Z,15.83
2023-04-09T11:43:20.867Z,15.92
2023-04-09T11:45:50.230Z,15.93
2023-04-09T11:48:19.135Z,15.93
2023-04-09T11:50:47.656Z,15.92
2023-04-09T11:53:20.024Z,15.92
2023-04-09T11:55:50.349Z,15.93
2023-04-09T11:58:20.001Z,15.98
2023-04-09T12:00:48.365Z,16.08
2023-04-09T12:03:17.186Z,16.02
2023-04-09T12:05:50.666Z,16.12
2023-04-09T12:08:24.705Z,16.02
2023-04-09T12:10:54.188Z,16.11
2023-04-09T12:13:33.488Z,16.03
2023-04-09T12:16:02.373Z,15.99
2023-04-09T12:18:30.396Z,15.96
2023-04-09T12:20:59.053Z,16.01
2023-04-09T12:23:27.011Z,15.98
2023-04-09T12:25:55.378Z,15.80
2023-04-09T12:28:24.671Z,16.17
2023-04-09T12:30:53.252Z,16.39
2023-04-09T12:33:21.248Z,16.59
2023-04-09T12:35:49.493Z,16.63
2023-04-09T12:38:17.503Z,16.90
2023-04-09T12:40:46.107Z,17.10
2023-04-09T12:43:14.034Z,17.30
2023-04-09T12:45:43.661Z,17.36
2023-04-09T12:48:11.670Z,17.43
2023-04-09T12:50:40.012Z,17.58
2023-04-09T12:53:08.831Z,17.84
2023-04-09T12:55:37.078Z,18.17
2023-04-09T12:58:05.305Z,18.25
2023-04-09T13:00:33.588Z,18.57
2023-04-09T13:03:03.089Z,18.71
2023-04-09T13:05:32.441Z,18.72
2023-04-09T13:08:00.432Z,18.70
2023-04-09T13:10:28.781Z,19.02
2023-04-09T13:12:56.801Z,19.13
2023-04-09T13:15:25.092Z,19.29
2023-04-09T13:17:53.108Z,19.38
2023-04-09T13:20:22.749Z,19.42
2023-04-09T13:22:50.957Z,19.39
2023-04-09T13:25:19.276Z,19.30
2023-04-09T13:27:47.376Z,19.17
2023-04-09T13:30:16.163Z,19.12
2023-04-09T13:32:44.564Z,19.25
2023-04-09T13:35:13.015Z,19.54
2023-04-09T13:37:42.737Z,19.65
2023-04-09T13:40:11.889Z,19.51
2023-04-09T13:42:39.960Z,19.89
2023-04-09T13:45:08.716Z,21.14
2023-04-09T13:47:37.921Z,22.14
2023-04-09T13:50:07.565Z,23.51
2023-04-09T13:52:35.689Z,24.76
2023-04-09T13:55:06.305Z,25.12
2023-04-09T13:57:34.323Z,25.96
2023-04-09T14:00:04.802Z,26.36
2023-04-09T14:02:33.235Z,27.72
2023-04-09T14:05:02.505Z,27.86
2023-04-09T14:07:30.763Z,27.80
2023-04-09T14:09:59.028Z,28.59
2023-04-09T14:12:28.464Z,29.14
2023-04-09T14:14:56.737Z,29.48
2023-04-09T14:17:24.901Z,30.22
2023-04-09T14:19:53.273Z,30.36
2023-04-09T14:22:21.318Z,28.82
2023-04-09T14:24:49.647Z,27.43
2023-04-09T14:27:17.734Z,26.89
2023-04-09T14:29:47.546Z,26.16
2023-04-09T14:32:15.669Z,25.56
2023-04-09T14:34:43.900Z,25.00
2023-04-09T14:37:12.241Z,24.44
2023-04-09T14:39:40.533Z,23.92
2023-04-09T14:42:08.687Z,23.46
2023-04-09T14:44:36.971Z,22.89
2023-04-09T14:47:06.470Z,23.05
2023-04-09T14:49:34.814Z,24.73
2023-04-09T14:52:02.883Z,26.73
2023-04-09T14:54:32.143Z,28.06
2023-04-09T14:57:02.522Z,28.58
2023-04-09T14:59:31.012Z,29.51
2023-04-09T15:01:59.163Z,29.44
2023-04-09T15:04:28.978Z,29.49
2023-04-09T15:06:57.023Z,30.12
2023-04-09T15:09:25.342Z,30.93
2023-04-09T15:11:54.113Z,31.83
2023-04-09T15:14:26.283Z,32.36
2023-04-09T15:16:55.865Z,32.16
2023-04-09T15:19:24.323Z,31.52
2023-04-09T15:21:53.706Z,31.82
2023-04-09T15:24:21.911Z,32.53
2023-04-09T15:26:50.406Z,32.83
2023-04-09T15:29:18.722Z,33.39
2023-04-09T15:31:46.774Z,33.82
2023-04-09T15:34:15.387Z,33.66
2023-04-09T15:36:43.332Z,33.73
2023-04-09T15:39:13.127Z,33.86
2023-04-09T15:41:41.330Z,33.79
2023-04-09T15:44:09.662Z,33.93
2023-04-09T15:46:38.849Z,33.99
2023-04-09T15:49:07.212Z,34.46
2023-04-09T15:51:35.251Z,34.30
2023-04-09T15:54:04.272Z,34.56
2023-04-09T15:56:35.935Z,34.08
2023-04-09T15:59:05.353Z,32.63
2023-04-09T16:01:33.521Z,31.05
2023-04-09T16:04:01.904Z,29.63
2023-04-09T16:06:30.609Z,28.46
2023-04-09T16:08:58.864Z,27.32
2023-04-09T16:11:27.308Z,26.73
2023-04-09T16:13:57.213Z,25.96
2023-04-09T16:16:25.559Z,25.22
2023-04-09T16:18:54.311Z,24.67
2023-04-09T16:21:23.381Z,24.05
2023-04-09T16:23:51.627Z,23.59
2023-04-09T16:26:19.649Z,24.60
2023-04-09T16:28:48.164Z,25.83
2023-04-09T16:31:17.709Z,26.87
2023-04-09T16:33:46.036Z,27.73
2023-04-09T16:36:14.053Z,28.45
2023-04-09T16:38:42.494Z,28.65
2023-04-09T16:41:10.736Z,29.06
2023-04-09T16:43:39.008Z,29.35
2023-04-09T16:46:07.669Z,29.57
2023-04-09T16:48:41.496Z,29.63
2023-04-09T16:51:09.759Z,29.63
2023-04-09T16:53:38.971Z,29.71
2023-04-09T16:56:07.966Z,29.90
2023-04-09T16:58:36.357Z,29.48
2023-04-09T17:01:04.860Z,29.42
2023-04-09T17:03:33.389Z,29.07
2023-04-09T17:06:04.382Z,28.81
2023-04-09T17:08:32.934Z,28.39
2023-04-09T17:11:03.272Z,28.58
2023-04-09T17:13:34.659Z,28.33
2023-04-09T17:16:03.213Z,27.07
2023-04-09T17:18:31.721Z,26.00
2023-04-09T17:21:00.225Z,25.27
2023-04-09T17:23:29.930Z,24.51
2023-04-09T17:25:58.221Z,24.19
2023-04-09T17:28:26.784Z,24.03
2023-04-09T17:30:54.970Z,23.91
2023-04-09T17:33:23.321Z,23.57
2023-04-09T17:35:52.859Z,23.40
2023-04-09T17:38:25.128Z,23.30
2023-04-09T17:40:54.863Z,22.86
2023-04-09T17:43:23.468Z,22.37
2023-04-09T17:45:51.498Z,21.98
2023-04-09T17:48:19.963Z,21.44
2023-04-09T17:50:48.348Z,21.00
2023-04-09T17:53:16.815Z,20.74
2023-04-09T17:55:47.488Z,20.33
2023-04-09T17:58:17.544Z,20.14
2023-04-09T18:00:45.630Z,19.76
2023-04-09T18:03:14.451Z,19.52
2023-04-09T18:05:42.960Z,19.21
2023-04-09T18:08:11.529Z,19.03
2023-04-09T18:10:39.613Z,18.63
2023-04-09T18:13:07.999Z,18.59
2023-04-09T18:15:38.172Z,18.43
2023-04-09T18:18:06.552Z,18.06
2023-04-09T18:20:34.994Z,17.96
2023-04-09T18:23:03.259Z,17.87
2023-04-09T18:25:31.578Z,17.62
2023-04-09T18:28:00.021Z,17.37
2023-04-09T18:30:28.417Z,17.11
2023-04-09T18:32:58.260Z,17.07
2023-04-09T18:35:26.321Z,16.93
2023-04-09T18:37:54.657Z,16.83
2023-04-09T18:40:22.686Z,16.80
2023-04-09T18:42:52.767Z,16.67
2023-04-09T18:45:21.160Z,16.55
2023-04-09T18:47:49.606Z,16.35
2023-04-09T18:50:19.726Z,16.21
2023-04-09T18:52:48.182Z,16.20
2023-04-09T18:55:16.790Z,16.05
2023-04-09T18:57:45.102Z,15.98
2023-04-09T19:00:14.157Z,15.83
2023-04-09T19:02:42.809Z,15.70
2023-04-09T19:05:11.271Z,15.64
2023-04-09T19:07:41.045Z,15.50
2023-04-09T19:10:10.275Z,15.36
2023-04-09T19:12:39.124Z,15.23
2023-04-09T19:15:08.128Z,15.08
2023-04-09T19:17:36.637Z,15.01
2023-04-09T19:20:05.570Z,14.87
2023-04-09T19:22:33.855Z,14.79
2023-04-09T19:25:03.403Z,14.70
2023-04-09T19:27:31.866Z,14.58
2023-04-09T19:30:01.053Z,14.57
2023-04-09T19:32:29.564Z,14.50
2023-04-09T19:34:57.643Z,14.42
2023-04-09T19:37:27.963Z,14.37
2023-04-09T19:39:56.266Z,14.31
2023-04-09T19:42:28.518Z,14.20
2023-04-09T19:44:56.510Z,14.16
2023-04-09T19:47:25.455Z,14.14
2023-04-09T19:49:53.620Z,14.03
2023-04-09T19:52:22.101Z,13.88
2023-04-09T19:54:54.795Z,13.91
2023-04-09T19:57:23.315Z,13.77
2023-04-09T19:59:54.108Z,13.65
2023-04-09T20:02:23.729Z,13.64
2023-04-09T20:04:52.249Z,13.66
2023-04-09T20:07:20.576Z,13.74
2023-04-09T20:09:49.533Z,13.69
2023-04-09T20:12:17.772Z,13.72
2023-04-09T20:14:46.642Z,13.55
2023-04-09T20:17:19.666Z,13.48
2023-04-09T20:19:47.763Z,13.43
2023-04-09T20:22:16.117Z,13.46
2023-04-09T20:24:44.336Z,13.53
2023-04-09T20:27:12.667Z,13.46
2023-04-09T20:29:40.898Z,13.40
2023-04-09T20:32:09.223Z,13.35
2023-04-09T20:34:38.575Z,13.43
2023-04-09T20:37:07.196Z,13.39
2023-04-09T20:39:35.415Z,13.35
2023-04-09T20:42:04.044Z,13.33
2023-04-09T20:44:31.989Z,13.34
2023-04-09T20:47:00.464Z,13.36
2023-04-09T20:49:28.864Z,13.31
2023-04-09T20:51:58.476Z,13.30
2023-04-09T20:54:27.114Z,13.29
2023-04-09T20:56:55.842Z,13.24
2023-04-09T20:59:24.864Z,13.19
2023-04-09T21:01:53.988Z,13.21
2023-04-09T21:04:22.190Z,13.13
2023-04-09T21:06:50.464Z,13.01
2023-04-09T21:09:19.845Z,12.95
2023-04-09T21:11:48.158Z,12.87
2023-04-09T21:14:16.305Z,12.84
2023-04-09T21:16:44.956Z,12.82
2023-04-09T21:19:12.971Z,12.89
2023-04-09T21:21:41.478Z,12.85
2023-04-09T21:24:09.486Z,12.90
2023-04-09T21:26:50.841Z,12.84
2023-04-09T21:29:20.818Z,12.73
2023-04-09T21:31:49.294Z,12.94
2023-04-09T21:34:17.472Z,12.83
2023-04-09T21:36:46.249Z,12.74
2023-04-09T21:39:14.344Z,12.74
2023-04-09T21:41:43.937Z,12.70
2023-04-09T21:44:12.079Z,12.75
2023-04-09T21:46:41.779Z,12.70
2023-04-09T21:49:10.061Z,12.65
2023-04-09T21:51:39.603Z,12.65
2023-04-09T21:54:08.667Z,12.70
2023-04-09T21:56:37.723Z,12.72
2023-04-09T21:59:07.272Z,12.61
2023-04-09T22:01:35.676Z,12.59
2023-04-09T22:04:04.150Z,12.50
2023-04-09T22:06:32.876Z,12.46
2023-04-09T22:09:01.775Z,12.44
2023-04-09T22:11:30.519Z,12.32
2023-04-09T22:13:58.791Z,12.36
2023-04-09T22:16:28.780Z,12.29
2023-04-09T22:18:57.349Z,12.40
2023-04-09T22:21:26.389Z,12.32
2023-04-09T22:23:54.563Z,12.36
2023-04-09T22:26:23.829Z,12.26
2023-04-09T22:28:52.274Z,12.18
2023-04-09T22:31:20.954Z,12.12
2023-04-09T22:33:50.586Z,12.08
2023-04-09T22:36:19.097Z,12.07
2023-04-09T22:38:47.289Z,12.02
2023-04-09T22:41:17.487Z,12.07
2023-04-09T22:43:45.806Z,12.03
2023-04-09T22:46:14.095Z,12.08
2023-04-09T22:48:55.653Z,12.15
2023-04-09T22:51:29.072Z,12.25
2023-04-09T22:53:57.262Z,12.38
2023-04-09T22:56:25.657Z,12.51
2023-04-09T22:58:53.841Z,12.43
2023-04-09T23:01:23.117Z,12.29
2023-04-09T23:03:51.791Z,12.27
2023-04-09T23:06:21.710Z,12.25
2023-04-09T23:08:51.302Z,12.06
2023-04-09T23:11:19.575Z,12.13
2023-04-09T23:13:47.589Z,12.28
2023-04-09T23:16:16.154Z,12.13
2023-04-09T23:18:44.780Z,12.21
2023-04-09T23:21:13.189Z,12.19
2023-04-09T23:23:41.277Z,12.08
2023-04-09T23:26:10.998Z,11.94
2023-04-09T23:28:39.011Z,11.87
2023-04-09T23:31:07.691Z,11.88
2023-04-09T23:33:35.737Z,11.94
2023-04-09T23:36:04.048Z,11.87
2023-04-09T23:38:32.040Z,11.84
2023-04-09T23:41:00.363Z,11.79
2023-04-09T23:43:29.760Z,11.67
2023-04-09T23:45:58.027Z,11.65
2023-04-09T23:48:26.262Z,11.61
2023-04-09T23:50:54.525Z,11.51
2023-04-09T23:53:22.618Z,11.48
2023-04-09T23:55:51.026Z,11.57
2023-04-09T23:58:19.081Z,11.61
